createdAt,value
2023-02-12T00:01:33.912Z,27.79
2023-02-12T00:04:39.715Z,25.37
2023-02-12T00:07:46.372Z,24.22
2023-02-12T00:10:52.164Z,25.56
2023-02-12T00:14:02.189Z,25.29
2023-02-12T00:17:08.010Z,24.76
2023-02-12T00:20:15.505Z,23.90
2023-02-12T00:23:21.457Z,24.44
2023-02-12T00:26:28.242Z,24.55
2023-02-12T00:29:37.180Z,25.76
2023-02-12T00:32:45.266Z,23.75
2023-02-12T00:35:59.677Z,24.37
2023-02-12T00:39:06.951Z,24.61
2023-02-12T00:42:12.838Z,25.55
2023-02-12T00:45:22.450Z,24.46
2023-02-12T00:48:28.339Z,24.02
2023-02-12T00:51:35.110Z,22.85
2023-02-12T00:54:41.611Z,23.46
2023-02-12T00:57:48.243Z,21.96
2023-02-12T01:00:58.825Z,22.63
2023-02-12T01:04:05.545Z,22.22
2023-02-12T01:07:12.680Z,22.44
2023-02-12T01:10:20.885Z,21.21
2023-02-12T01:13:27.779Z,22.36
2023-02-12T01:16:38.043Z,21.55
2023-02-12T01:19:43.944Z,22.60
2023-02-12T01:22:51.337Z,22.21
2023-02-12T01:25:57.668Z,22.17
2023-02-12T01:29:09.845Z,22.37
2023-02-12T01:32:19.406Z,21.82
2023-02-12T01:35:26.290Z,21.64
2023-02-12T01:38:32.461Z,21.31
2023-02-12T01:41:45.869Z,21.77
2023-02-12T01:45:36.334Z,22.08
2023-02-12T01:48:50.809Z,21.45
2023-02-12T01:52:05.698Z,21.93
2023-02-12T01:55:17.487Z,22.20
2023-02-12T01:58:24.305Z,21.83
2023-02-12T02:01:35.431Z,21.33
2023-02-12T02:04:51.472Z,21.94
2023-02-12T02:07:58.285Z,21.69
2023-02-12T02:11:25.660Z,20.73
2023-02-12T02:14:35.128Z,21.39
2023-02-12T02:17:57.194Z,21.88
2023-02-12T02:21:59.838Z,23.20
2023-02-12T02:26:08.219Z,22.33
2023-02-12T02:29:45.964Z,20.66
2023-02-12T02:33:16.199Z,21.33
2023-02-12T02:36:54.106Z,22.14
2023-02-12T02:40:17.592Z,22.84
2023-02-12T02:43:33.359Z,25.12
2023-02-12T02:46:49.908Z,24.22
2023-02-12T02:50:06.763Z,25.09
2023-02-12T02:53:22.756Z,25.54
2023-02-12T02:56:32.953Z,24.46
2023-02-12T02:59:49.842Z,24.50
2023-02-12T03:03:06.686Z,23.98
2023-02-12T03:06:28.572Z,24.30
2023-02-12T03:09:43.815Z,23.87
2023-02-12T03:13:00.824Z,22.51
2023-02-12T03:16:14.888Z,22.78
2023-02-12T03:19:28.546Z,23.44
2023-02-12T03:22:43.657Z,23.97
2023-02-12T03:26:00.951Z,22.99
2023-02-12T03:29:07.280Z,22.65
2023-02-12T03:32:32.821Z,21.90
2023-02-12T03:35:53.901Z,20.81
2023-02-12T03:39:15.203Z,20.68
2023-02-12T03:42:37.305Z,19.75
2023-02-12T03:45:55.202Z,20.43
2023-02-12T03:49:10.554Z,21.89
2023-02-12T03:52:19.992Z,21.41
2023-02-12T03:55:29.324Z,20.66
2023-02-12T03:58:41.737Z,20.55
2023-02-12T04:01:54.879Z,20.18
2023-02-12T04:05:07.163Z,20.04
2023-02-12T04:08:16.787Z,20.89
2023-02-12T04:11:37.996Z,21.61
2023-02-12T04:14:56.765Z,21.66
2023-02-12T04:18:17.936Z,22.65
2023-02-12T04:21:51.789Z,23.76
2023-02-12T04:25:23.815Z,23.02
2023-02-12T04:28:51.074Z,23.75
2023-02-12T04:32:10.959Z,23.48
2023-02-12T04:35:27.931Z,24.24
2023-02-12T04:38:44.082Z,23.97
2023-02-12T04:41:49.979Z,24.90
2023-02-12T04:44:59.196Z,26.49
2023-02-12T04:48:06.729Z,26.58
2023-02-12T04:51:14.063Z,26.05
2023-02-12T04:54:23.519Z,25.81
2023-02-12T04:57:30.329Z,26.03
2023-02-12T05:00:39.768Z,24.54
2023-02-12T05:03:46.392Z,23.86
2023-02-12T05:06:52.279Z,24.16
2023-02-12T05:09:59.214Z,25.42
2023-02-12T05:13:06.709Z,27.13
2023-02-12T05:16:15.903Z,28.77
2023-02-12T05:19:21.744Z,28.74
2023-02-12T05:22:28.395Z,27.65
2023-02-12T05:25:34.178Z,28.40
2023-02-12T05:28:41.127Z,29.71
2023-02-12T05:31:49.775Z,29.89
2023-02-12T05:34:56.519Z,30.70
2023-02-12T05:38:02.528Z,29.17
2023-02-12T05:41:12.292Z,28.09
2023-02-12T05:44:18.074Z,26.55
2023-02-12T05:47:27.523Z,26.25
2023-02-12T05:50:33.424Z,28.20
2023-02-12T05:53:42.113Z,28.26
2023-02-12T05:56:50.907Z,29.15
2023-02-12T05:59:57.922Z,29.74
2023-02-12T06:03:06.527Z,30.49
2023-02-12T06:06:14.231Z,30.31
2023-02-12T06:09:20.320Z,29.37
2023-02-12T06:12:26.892Z,28.43
2023-02-12T06:15:32.760Z,29.50
2023-02-12T06:18:42.034Z,34.44
2023-02-12T06:21:48.811Z,40.90
2023-02-12T06:24:55.423Z,49.72
2023-02-12T06:28:02.324Z,78.50
2023-02-12T06:31:18.367Z,56.79
2023-02-12T06:34:26.809Z,50.69
2023-02-12T06:37:37.115Z,44.33
2023-02-12T06:40:43.001Z,32.66
2023-02-12T06:43:49.855Z,29.97
2023-02-12T06:46:57.478Z,24.19
2023-02-12T06:50:08.311Z,24.84
2023-02-12T06:53:14.115Z,28.72
2023-02-12T06:56:22.153Z,25.57
2023-02-12T06:59:28.043Z,25.04
2023-02-12T07:02:35.787Z,26.07
2023-02-12T07:05:46.351Z,23.40
2023-02-12T07:08:53.707Z,24.08
2023-02-12T07:12:02.764Z,22.98
2023-02-12T07:15:10.427Z,20.85
2023-02-12T07:18:16.249Z,18.88
2023-02-12T07:21:26.250Z,18.42
2023-02-12T07:24:32.391Z,17.56
2023-02-12T07:27:40.524Z,17.17
2023-02-12T07:30:46.342Z,17.97
2023-02-12T07:33:58.338Z,17.15
2023-02-12T07:37:07.100Z,14.99
2023-02-12T07:40:14.978Z,14.52
2023-02-12T07:43:20.784Z,14.43
2023-02-12T07:46:32.469Z,15.08
2023-02-12T07:49:38.579Z,15.09
2023-02-12T07:52:48.130Z,15.63
2023-02-12T07:55:54.545Z,18.16
2023-02-12T07:59:04.886Z,15.87
2023-02-12T08:02:12.302Z,15.38
2023-02-12T08:05:19.022Z,16.40
2023-02-12T08:08:27.398Z,18.15
2023-02-12T08:11:34.821Z,21.14
2023-02-12T08:14:40.666Z,25.03
2023-02-12T08:17:47.315Z,21.19
2023-02-12T08:20:53.077Z,18.86
2023-02-12T08:24:02.962Z,15.01
2023-02-12T08:27:09.318Z,13.16
2023-02-12T08:30:16.997Z,10.35
2023-02-12T08:33:22.960Z,11.65
2023-02-12T08:36:32.840Z,13.99
2023-02-12T08:39:41.294Z,12.47
2023-02-12T08:42:47.889Z,11.90
2023-02-12T08:45:54.452Z,12.83
2023-02-12T08:49:04.220Z,11.88
2023-02-12T08:52:10.017Z,11.76
2023-02-12T08:55:19.326Z,7.99
2023-02-12T08:58:25.111Z,8.88
2023-02-12T09:01:38.681Z,8.78
2023-02-12T09:04:44.542Z,7.54
2023-02-12T09:07:51.575Z,7.77
2023-02-12T09:11:00.203Z,9.20
2023-02-12T09:14:11.968Z,7.70
2023-02-12T09:17:17.798Z,7.76
2023-02-12T09:20:24.478Z,10.48
2023-02-12T09:23:30.440Z,10.34
2023-02-12T09:26:40.071Z,8.80
2023-02-12T09:29:45.830Z,8.75
2023-02-12T09:32:52.405Z,10.88
2023-02-12T09:35:58.417Z,79.09
2023-02-12T09:39:05.790Z,173.39
2023-02-12T09:42:41.275Z,268.77
2023-02-12T09:46:03.587Z,88.60
2023-02-12T09:49:20.532Z,44.10
2023-02-12T09:52:32.009Z,20.91
2023-02-12T09:55:39.621Z,12.91
2023-02-12T09:58:58.332Z,10.75
2023-02-12T10:02:04.505Z,10.55
2023-02-12T10:05:21.758Z,12.14
2023-02-12T10:08:58.359Z,11.55
2023-02-12T10:12:23.510Z,11.37
2023-02-12T10:15:47.836Z,12.36
2023-02-12T10:19:26.335Z,10.30
2023-02-12T10:22:56.801Z,11.37
2023-02-12T10:26:22.127Z,10.52
2023-02-12T10:29:34.766Z,11.96
2023-02-12T10:32:50.843Z,11.94
2023-02-12T10:36:10.855Z,11.08
2023-02-12T10:39:25.691Z,11.40
2023-02-12T10:42:43.761Z,101.79
2023-02-12T10:45:51.128Z,167.97
2023-02-12T10:49:03.607Z,234.07
2023-02-12T10:52:24.979Z,269.15
2023-02-12T10:55:35.912Z,201.10
2023-02-12T10:58:45.997Z,235.16
2023-02-12T11:01:52.044Z,106.90
2023-02-12T11:05:18.874Z,71.74
2023-02-12T11:08:39.262Z,87.85
2023-02-12T11:11:48.438Z,51.71
2023-02-12T11:15:01.686Z,66.70
2023-02-12T11:18:12.825Z,49.68
2023-02-12T11:21:27.104Z,68.07
2023-02-12T11:24:36.522Z,69.09
2023-02-12T11:27:42.860Z,62.64
2023-02-12T11:30:56.752Z,176.32
2023-02-12T11:34:19.935Z,107.01
2023-02-12T11:37:29.387Z,112.61
2023-02-12T11:40:37.408Z,66.41
2023-02-12T11:43:44.408Z,46.03
2023-02-12T11:46:57.020Z,40.22
2023-02-12T11:50:12.695Z,34.21
2023-02-12T11:53:31.648Z,120.31
2023-02-12T11:56:49.869Z,204.52
2023-02-12T12:00:00.558Z,79.30
2023-02-12T12:03:18.982Z,23.06
2023-02-12T12:06:37.797Z,81.10
2023-02-12T12:10:00.909Z,109.04
2023-02-12T12:13:18.422Z,56.36
2023-02-12T12:16:52.522Z,80.57
2023-02-12T12:20:10.474Z,74.11
2023-02-12T12:23:26.286Z,105.68
2023-02-12T12:26:37.724Z,107.68
2023-02-12T12:30:01.126Z,47.46
2023-02-12T12:33:20.241Z,90.45
2023-02-12T12:37:05.917Z,71.33
2023-02-12T12:40:45.810Z,33.22
2023-02-12T12:44:18.667Z,24.85
2023-02-12T12:47:43.534Z,21.92
2023-02-12T12:51:18.996Z,19.69
2023-02-12T12:54:52.276Z,18.20
2023-02-12T12:58:17.538Z,17.50
2023-02-12T13:02:00.609Z,14.86
2023-02-12T13:06:07.924Z,12.62
2023-02-12T13:09:48.660Z,66.83
2023-02-12T13:13:23.812Z,109.42
2023-02-12T13:16:40.482Z,92.20
2023-02-12T13:20:14.471Z,213.42
2023-02-12T13:23:38.969Z,246.24
2023-02-12T13:26:57.533Z,219.31
2023-02-12T13:30:20.371Z,33.15
2023-02-12T13:33:36.429Z,30.37
2023-02-12T13:36:48.275Z,25.17
2023-02-12T13:40:03.547Z,14.61
2023-02-12T13:43:36.093Z,25.21
2023-02-12T13:47:05.518Z,14.86
2023-02-12T13:50:40.347Z,15.16
2023-02-12T13:54:16.356Z,13.49
2023-02-12T13:57:24.826Z,13.27
2023-02-12T14:01:02.363Z,11.97
2023-02-12T14:04:33.153Z,56.10
2023-02-12T14:07:50.912Z,65.19
2023-02-12T14:11:16.321Z,45.67
2023-02-12T14:14:34.395Z,38.24
2023-02-12T14:17:59.348Z,35.06
2023-02-12T14:21:47.382Z,30.47
2023-02-12T14:25:00.957Z,26.40
2023-02-12T14:28:31.303Z,32.11
2023-02-12T14:31:41.021Z,43.82
2023-02-12T14:34:47.650Z,55.18
2023-02-12T14:37:57.620Z,38.44
2023-02-12T14:41:38.090Z,22.56
2023-02-12T14:44:59.117Z,23.98
2023-02-12T14:48:08.840Z,22.44
2023-02-12T14:51:25.158Z,26.48
2023-02-12T14:54:40.165Z,42.45
2023-02-12T14:57:47.095Z,22.48
2023-02-12T15:01:00.731Z,25.10
2023-02-12T15:04:23.132Z,25.96
2023-02-12T15:07:42.176Z,23.16
2023-02-12T15:10:56.845Z,34.68
2023-02-12T15:14:10.893Z,32.40
2023-02-12T15:17:27.759Z,27.27
2023-02-12T15:20:48.094Z,29.18
2023-02-12T15:24:09.299Z,36.38
2023-02-12T15:27:19.357Z,24.63
2023-02-12T15:30:32.027Z,25.34
2023-02-12T15:33:49.699Z,26.73
2023-02-12T15:36:59.669Z,34.73
2023-02-12T15:40:09.639Z,38.61
2023-02-12T15:43:21.734Z,36.97
2023-02-12T15:46:29.261Z,37.19
2023-02-12T15:49:41.413Z,39.44
2023-02-12T15:52:53.158Z,40.78
2023-02-12T15:55:59.693Z,50.86
2023-02-12T15:59:07.521Z,50.21
2023-02-12T16:02:25.302Z,45.60
2023-02-12T16:05:36.766Z,46.28
2023-02-12T16:08:48.209Z,55.40
2023-02-12T16:11:55.322Z,55.02
2023-02-12T16:15:03.575Z,51.51
2023-02-12T16:18:27.480Z,46.46
2023-02-12T16:21:41.252Z,40.11
2023-02-12T16:24:53.945Z,35.88
2023-02-12T16:28:09.664Z,33.90
2023-02-12T16:31:19.452Z,35.84
2023-02-12T16:34:36.811Z,29.77
2023-02-12T16:37:59.638Z,30.51
2023-02-12T16:41:27.207Z,35.10
2023-02-12T16:44:37.524Z,34.70
2023-02-12T16:47:44.717Z,38.15
2023-02-12T16:50:55.991Z,39.56
2023-02-12T16:54:07.635Z,43.44
2023-02-12T16:57:15.133Z,49.35
2023-02-12T17:00:22.693Z,53.80
2023-02-12T17:03:30.117Z,47.92
2023-02-12T17:06:36.603Z,47.48
2023-02-12T17:09:46.001Z,48.66
2023-02-12T17:12:55.461Z,50.12
2023-02-12T17:16:04.391Z,54.01
2023-02-12T17:19:10.374Z,59.66
2023-02-12T17:22:26.641Z,63.80
2023-02-12T17:25:36.632Z,84.84
2023-02-12T17:28:43.851Z,80.76
2023-02-12T17:31:53.741Z,81.86
2023-02-12T17:35:00.486Z,76.04
2023-02-12T17:38:06.388Z,76.14
2023-02-12T17:41:16.049Z,70.02
2023-02-12T17:44:21.826Z,90.55
2023-02-12T17:47:29.968Z,115.13
2023-02-12T17:50:35.859Z,104.04
2023-02-12T17:53:44.012Z,122.10
2023-02-12T17:56:52.547Z,131.65
2023-02-12T17:59:59.147Z,143.24
2023-02-12T18:03:05.051Z,160.97
2023-02-12T18:06:14.298Z,170.34
2023-02-12T18:09:20.129Z,172.49
2023-02-12T18:12:29.447Z,159.32
2023-02-12T18:15:35.251Z,158.54
2023-02-12T18:18:43.672Z,149.81
2023-02-12T18:21:49.638Z,156.54
2023-02-12T18:24:57.799Z,156.95
2023-02-12T18:28:06.608Z,152.24
2023-02-12T18:31:14.873Z,146.47
2023-02-12T18:34:20.919Z,162.79
2023-02-12T18:37:27.472Z,191.90
2023-02-12T18:40:33.527Z,183.44
2023-02-12T18:43:44.043Z,195.24
2023-02-12T18:46:49.951Z,228.43
2023-02-12T18:50:00.781Z,217.84
2023-02-12T18:53:06.660Z,200.13
2023-02-12T18:56:15.874Z,195.58
2023-02-12T18:59:27.246Z,201.64
2023-02-12T19:02:37.055Z,191.96
2023-02-12T19:05:42.909Z,197.51
2023-02-12T19:08:50.089Z,198.47
2023-02-12T19:12:00.730Z,203.02
2023-02-12T19:15:13.253Z,242.64
2023-02-12T19:18:20.847Z,267.24
2023-02-12T19:21:28.967Z,202.95
2023-02-12T19:24:46.305Z,171.76
2023-02-12T19:27:53.519Z,150.33
2023-02-12T19:31:15.313Z,161.34
2023-02-12T19:34:26.304Z,179.00
2023-02-12T19:37:32.105Z,171.74
2023-02-12T19:40:39.120Z,146.50
2023-02-12T19:43:45.970Z,144.32
2023-02-12T19:46:57.099Z,153.41
2023-02-12T19:50:03.134Z,152.82
2023-02-12T19:53:09.818Z,148.83
2023-02-12T19:56:17.261Z,163.41
2023-02-12T19:59:27.049Z,187.15
2023-02-12T20:02:35.649Z,147.69
2023-02-12T20:05:46.718Z,182.70
2023-02-12T20:08:53.703Z,231.26
2023-02-12T20:12:01.729Z,225.39
2023-02-12T20:15:08.700Z,216.24
2023-02-12T20:18:18.010Z,246.44
2023-02-12T20:21:30.020Z,290.18
2023-02-12T20:24:40.616Z,254.76
2023-02-12T20:27:46.525Z,244.10
2023-02-12T20:30:53.859Z,234.71
2023-02-12T20:34:08.559Z,225.82
2023-02-12T21:29:39.519Z,85.44
2023-02-12T21:32:53.853Z,137.07
2023-02-12T21:36:00.352Z,186.41
2023-02-12T21:39:10.901Z,171.41
2023-02-12T21:49:52.114Z,181.87
2023-02-12T21:53:00.714Z,202.57
2023-02-12T22:03:55.991Z,215.22
2023-02-12T22:07:11.833Z,212.69
2023-02-12T22:10:18.462Z,210.92
2023-02-12T22:32:25.343Z,65.62
2023-02-12T22:35:32.295Z,57.39
2023-02-12T22:38:38.958Z,80.43
2023-02-12T22:41:45.583Z,60.61
2023-02-12T22:44:53.231Z,74.70
2023-02-12T22:48:02.532Z,95.12
2023-02-12T22:51:13.827Z,82.79
2023-02-12T22:54:22.759Z,62.80
2023-02-12T22:57:28.824Z,56.93
2023-02-12T23:00:35.703Z,78.00
2023-02-12T23:03:45.377Z,126.14
2023-02-12T23:06:52.170Z,118.86
2023-02-12T23:09:57.962Z,132.87
2023-02-12T23:13:05.986Z,63.67
2023-02-12T23:16:12.018Z,56.11
2023-02-12T23:19:21.245Z,54.10
2023-02-12T23:22:27.319Z,52.56
2023-02-12T23:25:33.945Z,55.09
2023-02-12T23:28:39.803Z,56.55
2023-02-12T23:31:46.632Z,57.70
2023-02-12T23:34:55.126Z,60.14
2023-02-12T23:38:01.975Z,61.05
2023-02-12T23:41:08.253Z,63.24
2023-02-12T23:44:15.128Z,63.93
2023-02-12T23:47:21.059Z,64.97
2023-02-12T23:50:30.325Z,66.79
2023-02-12T23:53:36.339Z,65.52
2023-02-12T23:56:45.026Z,66.23
2023-02-12T23:59:50.798Z,66.00
